sensor_id;sensor_type;location;lat;lon;timestamp;P1;durP1;ratioP1;P2;durP2;ratioP2
16977;SDS011;8605;52.548;4.918;2023-01-05T00:02:27;23.53;;;5.17;;
16977;SDS011;8605;52.548;4.918;2023-01-05T00:07:30;25.80;;;5.67;;
16977;SDS011;8605;52.548;4.918;2023-01-05T00:12:35;16.63;;;5.40;;
16977;SDS011;8605;52.548;4.918;2023-01-05T00:17:55;23.70;;;4.60;;
16977;SDS011;8605;52.548;4.918;2023-01-05T00:23:15;13.83;;;5.23;;
16977;SDS011;8605;52.548;4.918;2023-01-05T00:28:20;21.33;;;4.20;;
16977;SDS011;8605;52.548;4.918;2023-01-05T00:33:23;25.70;;;4.93;;
16977;SDS011;8605;52.548;4.918;2023-01-05T00:38:26;30.70;;;7.80;;
16977;SDS011;8605;52.548;4.918;2023-01-05T00:43:30;14.93;;;5.57;;
16977;SDS011;8605;52.548;4.918;2023-01-05T00:48:33;18.37;;;6.33;;
16977;SDS011;8605;52.548;4.918;2023-01-05T00:53:36;21.37;;;4.93;;
16977;SDS011;8605;52.548;4.918;2023-01-05T00:58:40;14.57;;;5.60;;
16977;SDS011;8605;52.548;4.918;2023-01-05T01:03:43;28.30;;;4.83;;
16977;SDS011;8605;52.548;4.918;2023-01-05T01:08:46;20.13;;;4.00;;
16977;SDS011;8605;52.548;4.918;2023-01-05T01:13:51;28.37;;;4.90;;
16977;SDS011;8605;52.548;4.918;2023-01-05T01:18:54;25.90;;;4.43;;
16977;SDS011;8605;52.548;4.918;2023-01-05T01:24:03;22.83;;;6.23;;
16977;SDS011;8605;52.548;4.918;2023-01-05T01:29:08;12.63;;;4.50;;
16977;SDS011;8605;52.548;4.918;2023-01-05T01:34:11;22.23;;;4.73;;
16977;SDS011;8605;52.548;4.918;2023-01-05T01:39:14;21.43;;;4.10;;
16977;SDS011;8605;52.548;4.918;2023-01-05T01:49:53;14.83;;;4.50;;
16977;SDS011;8605;52.548;4.918;2023-01-05T01:54:57;14.60;;;4.67;;
16977;SDS011;8605;52.548;4.918;2023-01-05T02:00:03;19.47;;;3.43;;
16977;SDS011;8605;52.548;4.918;2023-01-05T02:05:18;30.37;;;4.97;;
16977;SDS011;8605;52.548;4.918;2023-01-05T02:10:27;23.13;;;6.17;;
16977;SDS011;8605;52.548;4.918;2023-01-05T02:15:41;20.67;;;4.07;;
16977;SDS011;8605;52.548;4.918;2023-01-05T02:20:52;16.77;;;3.77;;
16977;SDS011;8605;52.548;4.918;2023-01-05T02:31:46;28.77;;;5.33;;
16977;SDS011;8605;52.548;4.918;2023-01-05T02:36:50;30.30;;;6.63;;
16977;SDS011;8605;52.548;4.918;2023-01-05T02:41:58;27.63;;;4.60;;
16977;SDS011;8605;52.548;4.918;2023-01-05T02:47:05;19.03;;;6.60;;
16977;SDS011;8605;52.548;4.918;2023-01-05T02:52:08;15.83;;;4.27;;
16977;SDS011;8605;52.548;4.918;2023-01-05T02:57:14;22.07;;;6.17;;
16977;SDS011;8605;52.548;4.918;2023-01-05T03:02:21;27.63;;;7.77;;
16977;SDS011;8605;52.548;4.918;2023-01-05T03:07:27;22.00;;;4.73;;
16977;SDS011;8605;52.548;4.918;2023-01-05T03:12:33;22.80;;;5.10;;
16977;SDS011;8605;52.548;4.918;2023-01-05T03:17:58;20.97;;;6.20;;
16977;SDS011;8605;52.548;4.918;2023-01-05T03:23:04;27.17;;;5.13;;
16977;SDS011;8605;52.548;4.918;2023-01-05T03:28:26;19.50;;;4.40;;
16977;SDS011;8605;52.548;4.918;2023-01-05T03:33:53;15.07;;;5.43;;
16977;SDS011;8605;52.548;4.918;2023-01-05T03:39:20;19.20;;;5.03;;
16977;SDS011;8605;52.548;4.918;2023-01-05T03:44:27;16.30;;;5.80;;
16977;SDS011;8605;52.548;4.918;2023-01-05T03:49:33;16.53;;;4.30;;
16977;SDS011;8605;52.548;4.918;2023-01-05T03:54:36;17.63;;;3.93;;
16977;SDS011;8605;52.548;4.918;2023-01-05T03:59:39;15.50;;;4.73;;
16977;SDS011;8605;52.548;4.918;2023-01-05T04:04:43;16.83;;;6.47;;
16977;SDS011;8605;52.548;4.918;2023-01-05T04:09:47;16.33;;;4.20;;
16977;SDS011;8605;52.548;4.918;2023-01-05T04:14:52;33.50;;;4.77;;
16977;SDS011;8605;52.548;4.918;2023-01-05T04:19:57;18.97;;;5.80;;
16977;SDS011;8605;52.548;4.918;2023-01-05T04:25:01;30.57;;;6.70;;
16977;SDS011;8605;52.548;4.918;2023-01-05T04:30:06;15.40;;;4.80;;
16977;SDS011;8605;52.548;4.918;2023-01-05T04:35:12;18.67;;;4.33;;
16977;SDS011;8605;52.548;4.918;2023-01-05T04:40:18;24.57;;;4.97;;
16977;SDS011;8605;52.548;4.918;2023-01-05T04:45:25;19.30;;;5.13;;
16977;SDS011;8605;52.548;4.918;2023-01-05T04:50:30;15.13;;;4.00;;
16977;SDS011;8605;52.548;4.918;2023-01-05T04:55:34;31.27;;;5.47;;
16977;SDS011;8605;52.548;4.918;2023-01-05T05:00:37;13.27;;;4.00;;
16977;SDS011;8605;52.548;4.918;2023-01-05T05:05:44;15.70;;;4.60;;
16977;SDS011;8605;52.548;4.918;2023-01-05T05:10:48;19.10;;;4.83;;
16977;SDS011;8605;52.548;4.918;2023-01-05T05:15:53;16.53;;;4.47;;
16977;SDS011;8605;52.548;4.918;2023-01-05T05:20:58;22.07;;;4.83;;
16977;SDS011;8605;52.548;4.918;2023-01-05T05:26:05;22.57;;;5.27;;
16977;SDS011;8605;52.548;4.918;2023-01-05T05:31:08;13.67;;;5.33;;
16977;SDS011;8605;52.548;4.918;2023-01-05T05:36:12;14.57;;;5.43;;
16977;SDS011;8605;52.548;4.918;2023-01-05T05:41:21;14.50;;;5.67;;
16977;SDS011;8605;52.548;4.918;2023-01-05T05:46:26;21.63;;;5.27;;
16977;SDS011;8605;52.548;4.918;2023-01-05T05:51:30;14.27;;;3.93;;
16977;SDS011;8605;52.548;4.918;2023-01-05T05:56:33;25.83;;;5.60;;
16977;SDS011;8605;52.548;4.918;2023-01-05T06:01:36;24.43;;;5.53;;
16977;SDS011;8605;52.548;4.918;2023-01-05T06:06:41;19.33;;;7.03;;
16977;SDS011;8605;52.548;4.918;2023-01-05T06:11:43;19.53;;;5.17;;
16977;SDS011;8605;52.548;4.918;2023-01-05T06:16:47;14.53;;;4.27;;
16977;SDS011;8605;52.548;4.918;2023-01-05T06:21:51;26.07;;;7.87;;
16977;SDS011;8605;52.548;4.918;2023-01-05T06:26:54;27.67;;;7.20;;
16977;SDS011;8605;52.548;4.918;2023-01-05T06:31:57;23.67;;;6.60;;
16977;SDS011;8605;52.548;4.918;2023-01-05T06:37:01;17.40;;;4.13;;
16977;SDS011;8605;52.548;4.918;2023-01-05T06:42:06;19.60;;;4.73;;
16977;SDS011;8605;52.548;4.918;2023-01-05T06:47:09;22.03;;;5.00;;
16977;SDS011;8605;52.548;4.918;2023-01-05T06:52:13;26.20;;;9.30;;
16977;SDS011;8605;52.548;4.918;2023-01-05T06:57:17;9.97;;;3.53;;
16977;SDS011;8605;52.548;4.918;2023-01-05T07:02:20;22.87;;;4.00;;
16977;SDS011;8605;52.548;4.918;2023-01-05T07:07:47;25.27;;;5.00;;
16977;SDS011;8605;52.548;4.918;2023-01-05T07:12:50;13.43;;;5.60;;
16977;SDS011;8605;52.548;4.918;2023-01-05T07:17:52;23.87;;;4.80;;
16977;SDS011;8605;52.548;4.918;2023-01-05T07:23:00;10.83;;;3.27;;
16977;SDS011;8605;52.548;4.918;2023-01-05T07:28:03;16.20;;;4.07;;
16977;SDS011;8605;52.548;4.918;2023-01-05T07:33:06;10.20;;;3.07;;
16977;SDS011;8605;52.548;4.918;2023-01-05T07:38:45;31.60;;;3.80;;
16977;SDS011;8605;52.548;4.918;2023-01-05T07:43:52;17.50;;;4.00;;
16977;SDS011;8605;52.548;4.918;2023-01-05T07:48:59;13.27;;;3.77;;
16977;SDS011;8605;52.548;4.918;2023-01-05T07:54:04;16.43;;;5.07;;
16977;SDS011;8605;52.548;4.918;2023-01-05T07:59:07;12.40;;;5.17;;
16977;SDS011;8605;52.548;4.918;2023-01-05T08:04:10;22.13;;;5.83;;
16977;SDS011;8605;52.548;4.918;2023-01-05T08:09:16;12.63;;;4.53;;
16977;SDS011;8605;52.548;4.918;2023-01-05T08:14:37;12.83;;;2.80;;
16977;SDS011;8605;52.548;4.918;2023-01-05T08:19:42;32.57;;;3.83;;
16977;SDS011;8605;52.548;4.918;2023-01-05T08:24:47;18.87;;;4.10;;
16977;SDS011;8605;52.548;4.918;2023-01-05T08:29:49;12.37;;;3.60;;
16977;SDS011;8605;52.548;4.918;2023-01-05T08:34:52;10.87;;;5.50;;
16977;SDS011;8605;52.548;4.918;2023-01-05T08:39:57;21.27;;;3.93;;
16977;SDS011;8605;52.548;4.918;2023-01-05T08:45:01;13.10;;;3.70;;
16977;SDS011;8605;52.548;4.918;2023-01-05T08:50:26;23.70;;;4.60;;
16977;SDS011;8605;52.548;4.918;2023-01-05T08:55:30;14.93;;;3.53;;
16977;SDS011;8605;52.548;4.918;2023-01-05T09:00:33;20.13;;;4.93;;
16977;SDS011;8605;52.548;4.918;2023-01-05T09:05:36;21.13;;;5.33;;
16977;SDS011;8605;52.548;4.918;2023-01-05T09:11:07;16.83;;;5.23;;
16977;SDS011;8605;52.548;4.918;2023-01-05T09:16:12;19.13;;;4.17;;
16977;SDS011;8605;52.548;4.918;2023-01-05T09:21:35;12.27;;;2.67;;
16977;SDS011;8605;52.548;4.918;2023-01-05T09:26:41;10.43;;;4.50;;
16977;SDS011;8605;52.548;4.918;2023-01-05T09:31:44;21.50;;;4.50;;
16977;SDS011;8605;52.548;4.918;2023-01-05T09:36:47;11.87;;;3.50;;
16977;SDS011;8605;52.548;4.918;2023-01-05T09:41:53;30.97;;;4.57;;
16977;SDS011;8605;52.548;4.918;2023-01-05T09:46:58;19.73;;;5.00;;
16977;SDS011;8605;52.548;4.918;2023-01-05T09:52:05;19.57;;;4.37;;
16977;SDS011;8605;52.548;4.918;2023-01-05T09:57:13;12.00;;;4.30;;
16977;SDS011;8605;52.548;4.918;2023-01-05T10:02:24;12.93;;;4.20;;
16977;SDS011;8605;52.548;4.918;2023-01-05T10:07:33;12.50;;;3.53;;
16977;SDS011;8605;52.548;4.918;2023-01-05T10:12:44;15.13;;;4.00;;
16977;SDS011;8605;52.548;4.918;2023-01-05T10:18:08;23.57;;;3.77;;
16977;SDS011;8605;52.548;4.918;2023-01-05T10:23:14;19.83;;;4.80;;
16977;SDS011;8605;52.548;4.918;2023-01-05T10:28:30;24.57;;;4.30;;
16977;SDS011;8605;52.548;4.918;2023-01-05T10:33:40;13.60;;;3.60;;
16977;SDS011;8605;52.548;4.918;2023-01-05T10:38:57;21.47;;;5.13;;
16977;SDS011;8605;52.548;4.918;2023-01-05T10:44:09;22.27;;;4.97;;
16977;SDS011;8605;52.548;4.918;2023-01-05T10:49:25;14.37;;;5.10;;
16977;SDS011;8605;52.548;4.918;2023-01-05T10:54:32;26.73;;;4.90;;
16977;SDS011;8605;52.548;4.918;2023-01-05T10:59:51;22.33;;;5.70;;
16977;SDS011;8605;52.548;4.918;2023-01-05T11:04:57;22.93;;;7.07;;
16977;SDS011;8605;52.548;4.918;2023-01-05T11:10:14;18.03;;;5.67;;
16977;SDS011;8605;52.548;4.918;2023-01-05T11:15:24;26.80;;;5.40;;
16977;SDS011;8605;52.548;4.918;2023-01-05T11:20:27;10.53;;;3.60;;
16977;SDS011;8605;52.548;4.918;2023-01-05T11:25:30;27.03;;;5.03;;
16977;SDS011;8605;52.548;4.918;2023-01-05T11:30:35;21.07;;;5.33;;
16977;SDS011;8605;52.548;4.918;2023-01-05T11:35:39;20.77;;;4.50;;
16977;SDS011;8605;52.548;4.918;2023-01-05T11:40:45;10.67;;;4.17;;
16977;SDS011;8605;52.548;4.918;2023-01-05T11:45:50;22.93;;;3.80;;
16977;SDS011;8605;52.548;4.918;2023-01-05T11:50:55;11.47;;;4.03;;
16977;SDS011;8605;52.548;4.918;2023-01-05T11:55:58;19.23;;;4.97;;
16977;SDS011;8605;52.548;4.918;2023-01-05T12:01:11;22.03;;;4.57;;
16977;SDS011;8605;52.548;4.918;2023-01-05T12:06:59;18.03;;;4.70;;
16977;SDS011;8605;52.548;4.918;2023-01-05T12:12:18;13.30;;;4.23;;
16977;SDS011;8605;52.548;4.918;2023-01-05T12:17:35;19.57;;;3.80;;
16977;SDS011;8605;52.548;4.918;2023-01-05T12:22:52;16.63;;;5.43;;
16977;SDS011;8605;52.548;4.918;2023-01-05T12:28:12;19.03;;;4.97;;
16977;SDS011;8605;52.548;4.918;2023-01-05T12:33:49;13.73;;;4.67;;
16977;SDS011;8605;52.548;4.918;2023-01-05T12:39:14;18.33;;;4.77;;
16977;SDS011;8605;52.548;4.918;2023-01-05T12:44:39;19.87;;;4.80;;
16977;SDS011;8605;52.548;4.918;2023-01-05T12:49:51;24.67;;;5.60;;
16977;SDS011;8605;52.548;4.918;2023-01-05T12:54:59;16.00;;;4.40;;
16977;SDS011;8605;52.548;4.918;2023-01-05T13:00:09;27.93;;;5.13;;
16977;SDS011;8605;52.548;4.918;2023-01-05T13:05:15;26.63;;;5.20;;
16977;SDS011;8605;52.548;4.918;2023-01-05T13:10:22;23.07;;;5.50;;
16977;SDS011;8605;52.548;4.918;2023-01-05T13:15:31;25.07;;;4.20;;
16977;SDS011;8605;52.548;4.918;2023-01-05T13:20:44;20.30;;;4.47;;
16977;SDS011;8605;52.548;4.918;2023-01-05T13:25:49;16.97;;;4.23;;
16977;SDS011;8605;52.548;4.918;2023-01-05T13:31:07;13.20;;;4.80;;
16977;SDS011;8605;52.548;4.918;2023-01-05T13:36:27;22.97;;;4.43;;
16977;SDS011;8605;52.548;4.918;2023-01-05T13:41:52;18.27;;;4.73;;
16977;SDS011;8605;52.548;4.918;2023-01-05T13:47:28;22.23;;;5.90;;
16977;SDS011;8605;52.548;4.918;2023-01-05T13:52:54;27.17;;;5.83;;
16977;SDS011;8605;52.548;4.918;2023-01-05T13:58:29;22.53;;;5.60;;
16977;SDS011;8605;52.548;4.918;2023-01-05T14:03:59;37.77;;;6.90;;
16977;SDS011;8605;52.548;4.918;2023-01-05T14:14:56;20.47;;;5.10;;
16977;SDS011;8605;52.548;4.918;2023-01-05T14:20:02;14.50;;;5.67;;
16977;SDS011;8605;52.548;4.918;2023-01-05T14:30:47;25.37;;;6.73;;
16977;SDS011;8605;52.548;4.918;2023-01-05T14:35:50;22.80;;;6.23;;
16977;SDS011;8605;52.548;4.918;2023-01-05T14:40:55;20.80;;;4.97;;
16977;SDS011;8605;52.548;4.918;2023-01-05T14:46:04;21.27;;;5.37;;
16977;SDS011;8605;52.548;4.918;2023-01-05T14:51:15;20.70;;;5.53;;
16977;SDS011;8605;52.548;4.918;2023-01-05T14:56:24;21.53;;;5.80;;
16977;SDS011;8605;52.548;4.918;2023-01-05T15:01:32;28.53;;;5.40;;
16977;SDS011;8605;52.548;4.918;2023-01-05T15:06:47;22.60;;;8.93;;
16977;SDS011;8605;52.548;4.918;2023-01-05T15:17:24;28.90;;;5.60;;
16977;SDS011;8605;52.548;4.918;2023-01-05T15:22:53;10.40;;;5.37;;
16977;SDS011;8605;52.548;4.918;2023-01-05T15:28:08;10.87;;;3.63;;
16977;SDS011;8605;52.548;4.918;2023-01-05T15:33:26;17.83;;;3.13;;
16977;SDS011;8605;52.548;4.918;2023-01-05T15:38:42;16.27;;;5.70;;
16977;SDS011;8605;52.548;4.918;2023-01-05T15:43:47;22.27;;;4.23;;
16977;SDS011;8605;52.548;4.918;2023-01-05T15:48:51;27.17;;;9.13;;
16977;SDS011;8605;52.548;4.918;2023-01-05T15:53:58;15.77;;;5.43;;
16977;SDS011;8605;52.548;4.918;2023-01-05T15:59:16;19.83;;;4.80;;
16977;SDS011;8605;52.548;4.918;2023-01-05T16:04:24;10.97;;;4.27;;
16977;SDS011;8605;52.548;4.918;2023-01-05T16:09:30;13.40;;;3.53;;
16977;SDS011;8605;52.548;4.918;2023-01-05T16:14:39;12.47;;;4.23;;
16977;SDS011;8605;52.548;4.918;2023-01-05T16:19:48;17.13;;;3.93;;
16977;SDS011;8605;52.548;4.918;2023-01-05T16:24:53;22.20;;;4.37;;
16977;SDS011;8605;52.548;4.918;2023-01-05T16:30:13;17.80;;;4.33;;
16977;SDS011;8605;52.548;4.918;2023-01-05T16:35:31;16.00;;;5.17;;
16977;SDS011;8605;52.548;4.918;2023-01-05T16:40:39;16.60;;;4.00;;
16977;SDS011;8605;52.548;4.918;2023-01-05T16:51:36;13.73;;;3.70;;
16977;SDS011;8605;52.548;4.918;2023-01-05T16:56:43;14.87;;;3.97;;
16977;SDS011;8605;52.548;4.918;2023-01-05T17:01:53;19.40;;;4.60;;
16977;SDS011;8605;52.548;4.918;2023-01-05T17:06:57;14.17;;;3.50;;
16977;SDS011;8605;52.548;4.918;2023-01-05T17:12:02;14.70;;;4.33;;
16977;SDS011;8605;52.548;4.918;2023-01-05T17:17:08;25.53;;;5.27;;
16977;SDS011;8605;52.548;4.918;2023-01-05T17:22:12;23.20;;;5.50;;
16977;SDS011;8605;52.548;4.918;2023-01-05T17:27:18;16.47;;;5.60;;
16977;SDS011;8605;52.548;4.918;2023-01-05T17:32:22;18.07;;;5.53;;
16977;SDS011;8605;52.548;4.918;2023-01-05T17:37:25;16.67;;;7.13;;
16977;SDS011;8605;52.548;4.918;2023-01-05T17:42:28;15.27;;;5.37;;
16977;SDS011;8605;52.548;4.918;2023-01-05T17:48:12;17.53;;;5.87;;
16977;SDS011;8605;52.548;4.918;2023-01-05T17:53:17;11.60;;;4.90;;
16977;SDS011;8605;52.548;4.918;2023-01-05T17:58:20;17.60;;;7.00;;
16977;SDS011;8605;52.548;4.918;2023-01-05T18:03:29;18.10;;;7.13;;
16977;SDS011;8605;52.548;4.918;2023-01-05T18:08:32;13.07;;;7.07;;
16977;SDS011;8605;52.548;4.918;2023-01-05T18:13:34;17.60;;;7.03;;
16977;SDS011;8605;52.548;4.918;2023-01-05T18:18:39;22.97;;;9.83;;
16977;SDS011;8605;52.548;4.918;2023-01-05T18:23:42;20.27;;;10.00;;
16977;SDS011;8605;52.548;4.918;2023-01-05T18:28:45;16.57;;;9.60;;
16977;SDS011;8605;52.548;4.918;2023-01-05T18:33:49;15.63;;;8.17;;
16977;SDS011;8605;52.548;4.918;2023-01-05T18:38:52;14.93;;;8.27;;
16977;SDS011;8605;52.548;4.918;2023-01-05T18:43:55;16.90;;;8.97;;
16977;SDS011;8605;52.548;4.918;2023-01-05T18:48:59;22.97;;;10.03;;
16977;SDS011;8605;52.548;4.918;2023-01-05T18:54:02;17.03;;;8.00;;
16977;SDS011;8605;52.548;4.918;2023-01-05T18:59:05;22.80;;;12.00;;
16977;SDS011;8605;52.548;4.918;2023-01-05T19:04:12;19.50;;;10.47;;
16977;SDS011;8605;52.548;4.918;2023-01-05T19:09:16;22.50;;;10.00;;
16977;SDS011;8605;52.548;4.918;2023-01-05T19:14:18;30.57;;;12.87;;
16977;SDS011;8605;52.548;4.918;2023-01-05T19:19:23;19.73;;;10.33;;
16977;SDS011;8605;52.548;4.918;2023-01-05T19:24:26;21.70;;;10.17;;
16977;SDS011;8605;52.548;4.918;2023-01-05T19:29:29;21.73;;;9.13;;
16977;SDS011;8605;52.548;4.918;2023-01-05T19:34:35;15.47;;;8.10;;
16977;SDS011;8605;52.548;4.918;2023-01-05T19:39:40;19.37;;;8.80;;
16977;SDS011;8605;52.548;4.918;2023-01-05T19:44:42;16.67;;;8.73;;
16977;SDS011;8605;52.548;4.918;2023-01-05T19:49:48;26.97;;;9.33;;
16977;SDS011;8605;52.548;4.918;2023-01-05T19:54:53;22.87;;;6.97;;
16977;SDS011;8605;52.548;4.918;2023-01-05T20:05:25;14.97;;;4.60;;
16977;SDS011;8605;52.548;4.918;2023-01-05T20:10:28;15.33;;;4.57;;
16977;SDS011;8605;52.548;4.918;2023-01-05T20:15:32;19.70;;;6.23;;
16977;SDS011;8605;52.548;4.918;2023-01-05T20:20:39;26.20;;;6.33;;
16977;SDS011;8605;52.548;4.918;2023-01-05T20:25:42;15.13;;;6.03;;
16977;SDS011;8605;52.548;4.918;2023-01-05T20:30:48;18.97;;;4.53;;
16977;SDS011;8605;52.548;4.918;2023-01-05T20:35:52;23.23;;;6.10;;
16977;SDS011;8605;52.548;4.918;2023-01-05T20:40:56;12.60;;;4.00;;
16977;SDS011;8605;52.548;4.918;2023-01-05T20:45:59;23.33;;;3.93;;
16977;SDS011;8605;52.548;4.918;2023-01-05T20:51:04;25.53;;;5.83;;
16977;SDS011;8605;52.548;4.918;2023-01-05T20:56:10;15.17;;;4.87;;
16977;SDS011;8605;52.548;4.918;2023-01-05T21:01:14;23.13;;;5.47;;
16977;SDS011;8605;52.548;4.918;2023-01-05T21:06:19;24.67;;;5.23;;
16977;SDS011;8605;52.548;4.918;2023-01-05T21:11:22;35.30;;;5.33;;
16977;SDS011;8605;52.548;4.918;2023-01-05T21:16:27;20.83;;;5.80;;
16977;SDS011;8605;52.548;4.918;2023-01-05T21:21:40;27.17;;;4.53;;
16977;SDS011;8605;52.548;4.918;2023-01-05T21:26:43;28.13;;;4.27;;
16977;SDS011;8605;52.548;4.918;2023-01-05T21:31:46;16.63;;;4.37;;
16977;SDS011;8605;52.548;4.918;2023-01-05T21:36:50;15.33;;;5.30;;
16977;SDS011;8605;52.548;4.918;2023-01-05T21:41:54;17.10;;;3.57;;
16977;SDS011;8605;52.548;4.918;2023-01-05T21:47:14;21.67;;;4.43;;
16977;SDS011;8605;52.548;4.918;2023-01-05T21:52:18;18.43;;;5.13;;
16977;SDS011;8605;52.548;4.918;2023-01-05T21:57:39;13.70;;;3.50;;
16977;SDS011;8605;52.548;4.918;2023-01-05T22:02:44;13.03;;;5.73;;
16977;SDS011;8605;52.548;4.918;2023-01-05T22:07:48;19.87;;;3.90;;
16977;SDS011;8605;52.548;4.918;2023-01-05T22:12:51;20.10;;;4.87;;
16977;SDS011;8605;52.548;4.918;2023-01-05T22:17:56;23.73;;;5.67;;
16977;SDS011;8605;52.548;4.918;2023-01-05T22:23:00;18.73;;;3.43;;
16977;SDS011;8605;52.548;4.918;2023-01-05T22:28:03;12.83;;;3.50;;
16977;SDS011;8605;52.548;4.918;2023-01-05T22:33:09;16.30;;;4.40;;
16977;SDS011;8605;52.548;4.918;2023-01-05T22:38:13;13.87;;;3.33;;
16977;SDS011;8605;52.548;4.918;2023-01-05T22:43:16;11.27;;;3.23;;
16977;SDS011;8605;52.548;4.918;2023-01-05T22:48:19;20.17;;;4.13;;
16977;SDS011;8605;52.548;4.918;2023-01-05T22:53:23;11.53;;;2.93;;
16977;SDS011;8605;52.548;4.918;2023-01-05T22:58:26;12.40;;;2.97;;
16977;SDS011;8605;52.548;4.918;2023-01-05T23:03:29;7.20;;;2.03;;
16977;SDS011;8605;52.548;4.918;2023-01-05T23:08:34;6.97;;;3.57;;
16977;SDS011;8605;52.548;4.918;2023-01-05T23:13:37;13.17;;;2.67;;
16977;SDS011;8605;52.548;4.918;2023-01-05T23:19:01;9.90;;;1.57;;
16977;SDS011;8605;52.548;4.918;2023-01-05T23:24:06;9.37;;;2.27;;
16977;SDS011;8605;52.548;4.918;2023-01-05T23:29:09;5.97;;;2.03;;
16977;SDS011;8605;52.548;4.918;2023-01-05T23:34:12;14.43;;;2.90;;
16977;SDS011;8605;52.548;4.918;2023-01-05T23:39:16;6.77;;;2.63;;
16977;SDS011;8605;52.548;4.918;2023-01-05T23:44:19;4.23;;;3.23;;
16977;SDS011;8605;52.548;4.918;2023-01-05T23:49:22;8.00;;;2.67;;
16977;SDS011;8605;52.548;4.918;2023-01-05T23:54:26;8.07;;;2.60;;
16977;SDS011;8605;52.548;4.918;2023-01-05T23:59:29;6.57;;;2.13;;
